Time;durP1;ratioP1;P1;durP2;ratioP2;P2;SDS_P1;SDS_P2;PMS_P1;PMS_P2;Temp;Humidity;BMP_temperature;BMP_pressure;BME280_temperature;BME280_humidity;BME280_pressure;Samples;Min_cycle;Max_cycle;Signal;HPM_P1;HPM_P2
2022/04/29 00:00:41;;;;;;;5.18;4.68;;;12.90;99.90;;;;;;5054015;28;20563;-79
2022/04/29 00:03:10;;;;;;;4.93;4.53;;;12.80;99.90;;;;;;5055761;28;20968;-78
2022/04/29 00:05:38;;;;;;;5.20;4.80;;;12.80;99.90;;;;;;5050312;28;20222;-84
2022/04/29 00:08:06;;;;;;;5.85;5.22;;;12.80;99.90;;;;;;5057116;28;20231;-80
2022/04/29 00:10:34;;;;;;;4.97;4.57;;;12.90;99.90;;;;;;5055576;28;20661;-82
2022/04/29 00:13:03;;;;;;;4.15;3.78;;;13.00;99.90;;;;;;5055798;28;20223;-81
2022/04/29 00:15:30;;;;;;;4.85;4.45;;;12.90;99.90;;;;;;5056134;28;20203;-80
2022/04/29 00:17:59;;;;;;;5.00;4.60;;;12.90;99.90;;;;;;5058685;28;20231;-83
2022/04/29 00:20:26;;;;;;;3.95;3.65;;;12.80;99.90;;;;;;5058184;28;20577;-81
2022/04/29 00:22:53;;;;;;;4.60;4.22;;;12.70;99.90;;;;;;5055182;28;20226;-79
2022/04/29 00:25:20;;;;;;;4.82;3.72;;;12.70;99.90;;;;;;5055400;28;20190;-80
2022/04/29 00:27:47;;;;;;;4.35;3.95;;;12.60;99.90;;;;;;5055266;28;20206;-80
2022/04/29 00:30:15;;;;;;;5.15;4.65;;;12.60;99.90;;;;;;5054520;28;20620;-82
2022/04/29 00:32:42;;;;;;;3.85;3.55;;;12.50;99.90;;;;;;5052397;28;20245;-83
2022/04/29 00:35:11;;;;;;;4.22;3.88;;;12.40;99.90;;;;;;5054008;28;20202;-82
2022/04/29 00:37:46;;;;;;;3.97;3.60;;;12.40;99.90;;;;;;5054732;28;20199;-77
2022/04/29 00:40:17;;;;;;;3.88;3.58;;;12.40;99.90;;;;;;5054238;28;20218;-82
2022/04/29 00:42:45;;;;;;;3.33;3.13;;;12.30;99.90;;;;;;5052982;28;20219;-82
2022/04/29 00:45:13;;;;;;;4.18;3.88;;;12.30;99.90;;;;;;5049479;28;20611;-81
2022/04/29 00:47:40;;;;;;;3.58;3.28;;;12.20;99.90;;;;;;5050555;28;20268;-78
2022/04/29 00:50:10;;;;;;;3.50;3.20;;;12.10;99.90;;;;;;5051136;28;20730;-81
2022/04/29 00:52:41;;;;;;;3.85;3.55;;;12.10;99.90;;;;;;5054139;28;20219;-80
2022/04/29 00:55:10;;;;;;;3.67;3.38;;;12.10;99.90;;;;;;5052483;28;20222;-78
2022/04/29 00:57:44;;;;;;;3.78;3.47;;;12.10;99.90;;;;;;5045013;28;20191;-78
2022/04/29 01:00:14;;;;;;;3.88;3.58;;;12.10;99.90;;;;;;5052890;28;20210;-80
2022/04/29 01:02:43;;;;;;;3.90;3.60;;;12.10;99.90;;;;;;5046587;28;20219;-81
2022/04/29 01:05:14;;;;;;;4.68;4.22;;;12.10;99.90;;;;;;5049135;28;20302;-78
2022/04/29 01:07:42;;;;;;;4.63;4.22;;;12.10;99.90;;;;;;5047980;28;20192;-78
2022/04/29 01:10:12;;;;;;;4.28;3.88;;;12.10;99.90;;;;;;5049895;28;20222;-78
2022/04/29 01:12:42;;;;;;;3.65;3.40;;;12.00;99.90;;;;;;5048147;28;20292;-79
2022/04/29 01:15:13;;;;;;;3.53;3.22;;;12.00;99.90;;;;;;5048612;28;20280;-77
2022/04/29 01:17:52;;;;;;;3.25;3.05;;;12.10;99.90;;;;;;5051169;28;20593;-87
2022/04/29 01:20:21;;;;;;;3.72;3.42;;;12.00;99.90;;;;;;5050548;28;20210;-80
2022/04/29 01:22:50;;;;;;;3.30;3.00;;;12.10;99.90;;;;;;5052471;28;20234;-82
2022/04/29 01:25:17;;;;;;;3.42;3.13;;;12.10;99.90;;;;;;5050317;28;20292;-81
2022/04/29 01:27:44;;;;;;;3.80;3.50;;;12.10;99.90;;;;;;5051580;28;20211;-76
2022/04/29 01:30:13;;;;;;;4.38;3.97;;;12.00;99.90;;;;;;5052070;28;20239;-82
2022/04/29 01:32:41;;;;;;;4.63;4.22;;;12.00;99.90;;;;;;5047581;28;20277;-78
2022/04/29 01:35:11;;;;;;;4.25;3.92;;;11.90;99.90;;;;;;5052686;28;20249;-78
2022/04/29 01:37:38;;;;;;;4.30;3.90;;;11.80;99.90;;;;;;5053577;28;20207;-78
2022/04/29 01:40:09;;;;;;;3.47;3.17;;;11.80;99.90;;;;;;5053720;28;20207;-83
2022/04/29 01:42:36;;;;;;;3.42;3.13;;;11.70;99.90;;;;;;5050986;28;20226;-83
2022/04/29 01:45:04;;;;;;;3.58;3.28;;;11.70;99.90;;;;;;5050937;28;20277;-83
2022/04/29 01:47:31;;;;;;;2.97;2.78;;;11.80;99.90;;;;;;5052158;28;20209;-81
2022/04/29 01:49:58;;;;;;;3.55;3.25;;;11.80;99.90;;;;;;5053375;28;20222;-79
2022/04/29 01:52:25;;;;;;;3.70;3.40;;;11.70;99.90;;;;;;5051408;28;20215;-79
2022/04/29 01:54:52;;;;;;;3.42;3.13;;;11.70;99.90;;;;;;5053293;28;20222;-84
2022/04/29 01:57:21;;;;;;;3.22;2.88;;;11.70;99.90;;;;;;5052020;28;20241;-81
2022/04/29 01:59:48;;;;;;;2.95;2.75;;;11.70;99.90;;;;;;5052873;28;20215;-79
2022/04/29 02:02:16;;;;;;;4.03;3.35;;;11.70;99.90;;;;;;5054313;28;20221;-85
2022/04/29 02:04:44;;;;;;;2.95;2.75;;;11.70;99.90;;;;;;5050009;28;20235;-83
2022/04/29 02:07:12;;;;;;;3.55;3.25;;;11.70;99.90;;;;;;5050381;28;20203;-81
2022/04/29 02:09:39;;;;;;;3.30;2.72;;;11.60;99.90;;;;;;5052047;28;20234;-79
2022/04/29 02:12:07;;;;;;;3.10;2.90;;;11.60;99.90;;;;;;5052911;28;20210;-82
2022/04/29 02:14:37;;;;;;;2.75;2.55;;;11.60;99.90;;;;;;5047243;28;20242;-78
2022/04/29 02:17:05;;;;;;;3.50;3.20;;;11.50;99.90;;;;;;5046373;28;20199;-83
2022/04/29 02:19:32;;;;;;;3.20;3.00;;;11.50;99.90;;;;;;5052132;28;20317;-81
2022/04/29 02:22:00;;;;;;;3.30;3.10;;;11.50;99.90;;;;;;5053970;28;20226;-78
2022/04/29 02:24:27;;;;;;;3.17;2.90;;;11.50;99.90;;;;;;5051597;28;20218;-82
2022/04/29 02:26:55;;;;;;;3.00;2.80;;;11.50;99.90;;;;;;5054528;28;20205;-80
2022/04/29 02:29:22;;;;;;;3.50;3.20;;;11.50;99.90;;;;;;5052997;28;20222;-86
2022/04/29 02:31:52;;;;;;;3.53;3.25;;;11.50;99.90;;;;;;5054437;28;20191;-83
2022/04/29 02:34:19;;;;;;;2.92;2.72;;;11.50;99.90;;;;;;5050262;28;20219;-82
2022/04/29 02:36:47;;;;;;;3.50;3.20;;;11.50;99.90;;;;;;5054830;28;20195;-81
2022/04/29 02:39:14;;;;;;;3.00;2.80;;;11.50;99.90;;;;;;5053661;28;20704;-81
2022/04/29 02:41:41;;;;;;;3.05;2.85;;;11.50;99.90;;;;;;5051670;28;20284;-78
2022/04/29 02:44:08;;;;;;;3.65;3.35;;;11.40;99.90;;;;;;5050622;28;20215;-76
2022/04/29 02:46:35;;;;;;;3.10;2.90;;;11.40;99.90;;;;;;5054160;28;20199;-78
2022/04/29 02:49:03;;;;;;;3.30;3.10;;;11.40;99.90;;;;;;5052988;28;20624;-80
2022/04/29 02:51:30;;;;;;;2.97;2.78;;;11.40;99.90;;;;;;5052989;28;20669;-78
2022/04/29 02:53:58;;;;;;;3.30;3.10;;;11.30;99.90;;;;;;5051272;28;20231;-79
2022/04/29 02:56:25;;;;;;;3.28;2.97;;;11.30;99.90;;;;;;5054236;28;20679;-77
2022/04/29 02:58:52;;;;;;;3.70;3.40;;;11.30;99.90;;;;;;5056172;28;20214;-76
2022/04/29 03:01:19;;;;;;;3.17;2.97;;;11.30;99.90;;;;;;5054915;28;20198;-78
2022/04/29 03:03:46;;;;;;;2.85;2.65;;;11.20;99.90;;;;;;5055818;28;20234;-79
2022/04/29 03:06:14;;;;;;;3.00;2.70;;;11.20;99.90;;;;;;5056199;28;20199;-80
2022/04/29 03:08:41;;;;;;;3.53;2.97;;;11.10;99.90;;;;;;5056920;28;20223;-85
2022/04/29 03:11:08;;;;;;;3.20;3.00;;;11.10;99.90;;;;;;5056683;28;20199;-78
2022/04/29 03:13:35;;;;;;;3.33;3.13;;;11.10;99.90;;;;;;5050984;28;20272;-86
2022/04/29 03:16:02;;;;;;;2.80;2.60;;;11.10;99.90;;;;;;5054982;28;20256;-78
2022/04/29 03:18:30;;;;;;;3.17;2.97;;;11.10;99.90;;;;;;5054369;28;20199;-77
2022/04/29 03:20:57;;;;;;;3.67;3.30;;;11.10;99.90;;;;;;5051686;28;20203;-79
2022/04/29 03:23:26;;;;;;;3.30;3.00;;;11.10;99.90;;;;;;5054380;28;20265;-79
2022/04/29 03:25:54;;;;;;;2.65;2.45;;;11.10;99.90;;;;;;5051523;28;20191;-77
2022/04/29 03:28:21;;;;;;;3.33;3.08;;;11.10;99.90;;;;;;5053542;28;20199;-79
2022/04/29 03:30:48;;;;;;;3.28;3.00;;;11.10;99.90;;;;;;5052895;28;20240;-80
2022/04/29 03:33:15;;;;;;;3.70;3.50;;;11.10;99.90;;;;;;5051663;28;20226;-79
2022/04/29 03:35:43;;;;;;;3.22;3.03;;;11.20;99.90;;;;;;5052110;28;20839;-77
2022/04/29 03:38:11;;;;;;;3.28;3.00;;;11.10;99.90;;;;;;5051920;28;20195;-78
2022/04/29 03:40:39;;;;;;;3.72;3.47;;;11.20;99.90;;;;;;5051545;28;21172;-76
2022/04/29 03:43:07;;;;;;;3.70;3.40;;;11.20;99.90;;;;;;5050223;28;20218;-76
2022/04/29 03:45:34;;;;;;;4.30;3.88;;;11.10;99.90;;;;;;5049771;28;20258;-79
2022/04/29 03:48:01;;;;;;;4.00;3.70;;;11.10;99.90;;;;;;5052105;28;20696;-77
2022/04/29 03:50:29;;;;;;;4.10;3.80;;;11.00;99.90;;;;;;5051186;28;20214;-81
2022/04/29 03:52:59;;;;;;;3.65;3.35;;;11.00;99.90;;;;;;5056286;28;20709;-84
2022/04/29 03:55:28;;;;;;;3.45;3.15;;;11.10;99.90;;;;;;5055777;28;20249;-76
2022/04/29 03:57:57;;;;;;;3.75;3.45;;;11.00;99.90;;;;;;5053976;28;20195;-78
2022/04/29 04:00:27;;;;;;;3.92;3.53;;;11.10;99.90;;;;;;5055045;28;20230;-81
2022/04/29 04:02:54;;;;;;;3.08;2.80;;;11.10;99.90;;;;;;5053505;28;20223;-77
2022/04/29 04:05:23;;;;;;;3.30;3.00;;;11.10;99.90;;;;;;5051800;28;20724;-80
2022/04/29 04:07:50;;;;;;;3.40;3.20;;;11.10;99.90;;;;;;5050579;28;20229;-77
2022/04/29 04:10:17;;;;;;;3.53;3.33;;;11.20;99.90;;;;;;5050723;28;20236;-80
2022/04/29 04:12:46;;;;;;;3.28;3.08;;;11.20;99.90;;;;;;5049029;28;20873;-76
2022/04/29 04:15:16;;;;;;;3.20;3.00;;;11.10;99.90;;;;;;5052348;28;20261;-79
2022/04/29 04:17:44;;;;;;;3.60;3.30;;;11.10;99.90;;;;;;5050833;28;20196;-76
2022/04/29 04:20:12;;;;;;;3.15;2.95;;;11.20;99.90;;;;;;5050536;28;20224;-80
2022/04/29 04:25:18;;;;;;;3.40;3.20;;;11.20;99.90;;;;;;5029831;28;20222;-78
2022/04/29 04:27:45;;;;;;;3.63;3.38;;;11.20;99.90;;;;;;5023238;28;20622;-78
2022/04/29 04:30:14;;;;;;;3.65;3.35;;;11.20;99.90;;;;;;5028704;28;20219;-79
2022/04/29 04:32:41;;;;;;;3.63;3.33;;;11.20;99.90;;;;;;5028541;28;20196;-78
2022/04/29 04:35:08;;;;;;;3.40;3.00;;;11.30;99.90;;;;;;5008905;28;20583;-78
2022/04/29 04:37:36;;;;;;;2.90;2.70;;;11.30;99.90;;;;;;5007683;28;20208;-79
2022/04/29 04:40:04;;;;;;;2.78;2.58;;;11.40;99.90;;;;;;5007349;28;20242;-79
2022/04/29 04:42:32;;;;;;;2.80;2.60;;;11.40;99.90;;;;;;5008025;28;20201;-78
2022/04/29 04:44:59;;;;;;;2.85;2.65;;;11.40;99.90;;;;;;5004323;28;20231;-79
2022/04/29 04:47:27;;;;;;;2.80;2.60;;;11.50;99.90;;;;;;5005643;28;20201;-78
2022/04/29 04:49:54;;;;;;;3.20;2.90;;;11.50;99.90;;;;;;5008461;28;20224;-79
2022/04/29 04:52:21;;;;;;;2.90;2.70;;;11.50;99.90;;;;;;5004532;28;20224;-78
2022/04/29 04:54:48;;;;;;;3.28;3.08;;;11.60;99.90;;;;;;5010454;28;20226;-79
2022/04/29 04:57:15;;;;;;;3.00;2.80;;;11.60;99.90;;;;;;5007597;28;20223;-78
2022/04/29 04:59:42;;;;;;;3.20;3.00;;;11.60;99.90;;;;;;5012963;28;20219;-79
2022/04/29 05:02:09;;;;;;;2.70;2.50;;;11.70;99.90;;;;;;5009061;28;20573;-79
2022/04/29 05:04:38;;;;;;;3.00;2.70;;;11.70;99.90;;;;;;5007731;28;20275;-78
2022/04/29 05:07:05;;;;;;;3.20;3.00;;;11.70;99.90;;;;;;5010750;28;20204;-78
2022/04/29 05:09:32;;;;;;;3.25;2.78;;;11.70;99.90;;;;;;5008085;28;20278;-78
2022/04/29 05:11:59;;;;;;;3.10;2.90;;;11.70;99.90;;;;;;5009693;28;20196;-78
2022/04/29 05:14:26;;;;;;;2.47;2.28;;;11.60;99.90;;;;;;5005604;28;20278;-78
2022/04/29 05:16:53;;;;;;;2.17;2.08;;;11.60;99.90;;;;;;5008256;28;20204;-78
2022/04/29 05:19:20;;;;;;;2.38;2.22;;;11.60;99.90;;;;;;5009403;28;20714;-77
2022/04/29 05:21:48;;;;;;;2.72;2.53;;;11.70;99.90;;;;;;5011195;28;20196;-78
2022/04/29 05:24:15;;;;;;;2.17;2.08;;;11.80;99.90;;;;;;5007194;28;20571;-78
2022/04/29 05:26:42;;;;;;;2.30;2.20;;;11.90;99.90;;;;;;5004967;28;20192;-78
2022/04/29 05:29:09;;;;;;;3.45;2.53;;;12.00;99.90;;;;;;5003664;28;20654;-79
2022/04/29 05:31:37;;;;;;;2.80;2.60;;;12.10;99.90;;;;;;5007119;28;20234;-78
2022/04/29 05:34:05;;;;;;;3.67;3.38;;;12.10;99.90;;;;;;5008245;28;20736;-79
2022/04/29 05:36:34;;;;;;;4.25;2.78;;;12.10;99.90;;;;;;5004378;28;20211;-79
2022/04/29 05:44:33;;;;;;;3.92;2.72;;;12.40;99.90;;;;;;5008914;28;20230;-77
2022/04/29 05:47:00;;;;;;;2.97;2.70;;;12.50;99.90;;;;;;5007098;28;20201;-79
2022/04/29 05:49:27;;;;;;;3.15;2.42;;;12.50;99.90;;;;;;5003514;28;20290;-78
2022/04/29 05:51:54;;;;;;;2.33;2.20;;;12.60;99.90;;;;;;5010786;28;20196;-77
2022/04/29 05:54:23;;;;;;;2.83;2.63;;;12.60;99.90;;;;;;5011293;28;20690;-78
2022/04/29 05:56:50;;;;;;;2.90;2.70;;;12.70;99.90;;;;;;5003895;28;20192;-79
2022/04/29 05:59:17;;;;;;;2.85;2.58;;;12.70;99.90;;;;;;5010528;28;20200;-79
2022/04/29 06:01:44;;;;;;;2.67;2.40;;;12.70;99.90;;;;;;5010857;28;20201;-79
2022/04/29 06:04:11;;;;;;;2.75;2.50;;;12.80;99.90;;;;;;5008484;28;20258;-76
2022/04/29 06:06:38;;;;;;;2.58;2.38;;;12.80;99.90;;;;;;5005275;28;20208;-77
2022/04/29 06:09:05;;;;;;;2.78;2.55;;;12.90;99.90;;;;;;5007760;28;20644;-78
2022/04/29 06:11:34;;;;;;;2.75;2.55;;;13.00;99.90;;;;;;5007927;28;20457;-78
2022/04/29 06:14:01;;;;;;;2.35;2.22;;;13.20;99.90;;;;;;5005775;28;20220;-79
2022/04/29 06:16:28;;;;;;;2.42;2.22;;;13.30;99.90;;;;;;5000004;28;20235;-78
2022/04/29 06:18:55;;;;;;;2.00;1.90;;;13.30;99.90;;;;;;5004869;28;20196;-79
2022/04/29 06:21:22;;;;;;;2.10;2.00;;;13.40;99.90;;;;;;5003789;28;20231;-78
2022/04/29 06:23:50;;;;;;;2.10;1.98;;;13.60;99.90;;;;;;5006150;28;20232;-79
2022/04/29 06:26:17;;;;;;;2.10;2.00;;;13.80;99.90;;;;;;5004911;28;20595;-78
2022/04/29 06:28:46;;;;;;;2.78;2.55;;;14.20;99.90;;;;;;5005555;28;20287;-79
2022/04/29 06:31:13;;;;;;;4.20;2.58;;;14.40;99.90;;;;;;5005472;28;20216;-78
2022/04/29 06:33:40;;;;;;;2.38;2.17;;;14.20;99.90;;;;;;5009817;28;20224;-78
2022/04/29 06:36:07;;;;;;;2.45;2.25;;;14.10;99.90;;;;;;5008221;28;20280;-78
2022/04/29 06:38:35;;;;;;;2.10;2.00;;;14.00;99.90;;;;;;5006751;28;20211;-78
2022/04/29 06:41:02;;;;;;;3.00;2.40;;;13.90;99.90;;;;;;5005864;28;20223;-79
2022/04/29 06:43:30;;;;;;;2.50;2.20;;;14.10;99.90;;;;;;5000345;28;20224;-81
2022/04/29 06:45:59;;;;;;;3.10;2.80;;;14.10;99.90;;;;;;5009297;28;20234;-77
2022/04/29 06:48:27;;;;;;;2.58;2.38;;;14.00;99.90;;;;;;5009426;28;20292;-80
2022/04/29 06:50:54;;;;;;;2.30;2.20;;;13.90;99.90;;;;;;5013765;28;20224;-78
2022/04/29 06:53:21;;;;;;;2.20;2.00;;;13.90;99.90;;;;;;5008419;28;20231;-79
2022/04/29 06:55:48;;;;;;;2.85;2.35;;;14.00;99.90;;;;;;5008397;28;20646;-79
2022/04/29 06:58:15;;;;;;;2.50;2.30;;;14.40;99.90;;;;;;5006197;28;20632;-79
2022/04/29 07:00:43;;;;;;;2.00;1.90;;;15.10;99.90;;;;;;5013865;28;20267;-79
2022/04/29 07:03:12;;;;;;;2.55;2.35;;;15.30;99.90;;;;;;5017160;28;20224;-79
2022/04/29 07:05:39;;;;;;;2.47;2.28;;;15.30;99.90;;;;;;5005183;28;20235;-79
2022/04/29 07:08:07;;;;;;;2.63;2.42;;;15.60;99.90;;;;;;5006366;28;20625;-79
2022/04/29 07:10:34;;;;;;;3.72;2.10;;;16.00;99.90;;;;;;5003423;28;20221;-78
2022/04/29 07:13:03;;;;;;;2.22;2.03;;;16.40;99.90;;;;;;5003585;28;20255;-79
2022/04/29 07:15:30;;;;;;;3.03;2.20;;;16.70;99.90;;;;;;5004476;28;20228;-79
2022/04/29 07:17:57;;;;;;;3.13;2.15;;;16.90;99.90;;;;;;5002928;28;20774;-79
2022/04/29 07:20:26;;;;;;;2.30;2.10;;;17.10;99.90;;;;;;5006336;28;20219;-79
2022/04/29 07:22:53;;;;;;;2.60;2.20;;;17.20;99.90;;;;;;5005578;28;20203;-78
2022/04/29 07:25:20;;;;;;;2.10;1.90;;;17.20;99.90;;;;;;5002404;28;20224;-78
2022/04/29 07:27:48;;;;;;;2.50;2.30;;;17.20;99.90;;;;;;5009231;28;20196;-79
2022/04/29 07:30:15;;;;;;;2.58;2.08;;;17.30;99.90;;;;;;5010706;28;20246;-78
2022/04/29 07:32:43;;;;;;;2.55;2.35;;;17.30;99.90;;;;;;5010080;28;20206;-78
2022/04/29 07:43:25;;;;;;;2.70;2.30;;;17.40;99.90;;;;;;5004275;28;20227;-80
2022/04/29 07:45:52;;;;;;;2.33;2.13;;;17.50;99.90;;;;;;5003682;28;20250;-79
2022/04/29 07:48:20;;;;;;;5.05;2.05;;;17.60;99.90;;;;;;5006423;28;20259;-77
2022/04/29 07:50:48;;;;;;;2.30;2.10;;;17.90;99.90;;;;;;5014680;28;20216;-77
2022/04/29 07:53:16;;;;;;;2.80;2.30;;;17.90;99.90;;;;;;5014116;28;20263;-79
2022/04/29 07:55:43;;;;;;;3.38;2.22;;;18.00;99.90;;;;;;5012338;28;20223;-79
2022/04/29 07:58:11;;;;;;;2.50;2.30;;;18.10;99.90;;;;;;5014649;28;20193;-78
2022/04/29 08:00:38;;;;;;;2.15;1.92;;;18.20;99.90;;;;;;5013359;28;20240;-80
2022/04/29 08:03:06;;;;;;;2.20;1.98;;;18.10;99.90;;;;;;5012609;28;20227;-79
2022/04/29 08:05:33;;;;;;;2.65;2.45;;;18.00;99.90;;;;;;5014937;28;20252;-78
2022/04/29 08:08:01;;;;;;;2.28;2.10;;;18.10;99.90;;;;;;5010180;28;20246;-80
2022/04/29 08:10:31;;;;;;;5.53;2.85;;;18.20;99.90;;;;;;5003839;28;20224;-80
2022/04/29 08:12:59;;;;;;;3.67;2.25;;;18.30;99.90;;;;;;5018675;28;20196;-78
2022/04/29 08:15:26;;;;;;;4.40;2.30;;;18.20;99.90;;;;;;5017854;28;20636;-79
2022/04/29 08:17:54;;;;;;;3.10;2.40;;;18.10;99.90;;;;;;5005561;28;20255;-77
2022/04/29 08:20:22;;;;;;;3.75;2.35;;;18.30;99.90;;;;;;5013483;28;20224;-78
2022/04/29 08:22:49;;;;;;;4.53;2.95;;;18.30;99.90;;;;;;5011298;28;20251;-79
2022/04/29 08:25:18;;;;;;;3.85;2.50;;;18.40;99.90;;;;;;5015479;28;20235;-78
2022/04/29 08:27:47;;;;;;;2.17;1.98;;;18.70;99.90;;;;;;5004078;28;20194;-78
2022/04/29 08:30:15;;;;;;;2.20;2.05;;;19.00;99.90;;;;;;5005983;28;20232;-78
2022/04/29 08:58:43;;;;;;;2.90;2.50;;;19.30;99.90;;;;;;4983075;28;20719;-78
2022/04/29 09:01:13;;;;;;;2.55;2.35;;;19.40;99.90;;;;;;4969600;28;20711;-78
2022/04/29 09:03:43;;;;;;;2.92;2.53;;;19.50;99.90;;;;;;4997010;28;20229;-78
2022/04/29 09:06:10;;;;;;;4.15;2.78;;;19.70;99.90;;;;;;5004504;28;20559;-76
2022/04/29 09:08:42;;;;;;;2.88;2.53;;;19.90;99.90;;;;;;5002540;28;20612;-77
2022/04/29 09:11:11;;;;;;;2.90;2.67;;;19.90;99.90;;;;;;5001976;28;20741;-77
2022/04/29 09:13:40;;;;;;;2.88;2.63;;;19.80;99.90;;;;;;5001494;28;20224;-77
2022/04/29 09:16:10;;;;;;;2.53;2.33;;;19.90;99.90;;;;;;5003095;28;20207;-78
2022/04/29 09:18:39;;;;;;;2.65;2.20;;;20.20;99.90;;;;;;5002249;28;20667;-78
2022/04/29 09:21:08;;;;;;;2.78;2.58;;;20.30;99.90;;;;;;5000426;28;20192;-78
2022/04/29 09:23:37;;;;;;;2.50;2.30;;;20.20;99.90;;;;;;5003760;28;20224;-77
2022/04/29 09:26:07;;;;;;;3.33;2.40;;;20.50;99.90;;;;;;4999987;28;20295;-79
2022/04/29 09:28:36;;;;;;;2.90;2.50;;;20.40;99.90;;;;;;5003485;28;20200;-78
2022/04/29 09:31:04;;;;;;;3.08;2.58;;;20.30;99.90;;;;;;5008723;28;20221;-79
2022/04/29 09:33:35;;;;;;;2.92;2.40;;;20.10;99.90;;;;;;5001236;28;20235;-78
2022/04/29 09:36:03;;;;;;;2.40;2.20;;;20.00;99.90;;;;;;5005252;28;20195;-79
2022/04/29 09:41:23;;;;;;;4.47;2.40;;;20.30;99.90;;;;;;5002433;28;20215;-78
2022/04/29 09:43:51;;;;;;;2.42;2.22;;;20.30;99.90;;;;;;4996803;28;20769;-78
2022/04/29 09:46:20;;;;;;;3.40;2.38;;;20.30;99.90;;;;;;4998072;28;20269;-78
2022/04/29 09:48:59;;;;;;;2.58;2.20;;;20.30;99.90;;;;;;5006004;28;20200;-79
2022/04/29 09:51:49;;;;;;;3.47;2.40;;;20.60;99.90;;;;;;5006097;28;20219;-78
2022/04/29 09:54:19;;;;;;;2.67;2.47;;;20.90;99.90;;;;;;5000556;28;20220;-78
2022/04/29 09:56:48;;;;;;;3.17;2.10;;;21.10;99.90;;;;;;4999065;28;20230;-79
2022/04/29 09:59:17;;;;;;;2.72;2.45;;;20.90;99.90;;;;;;5002767;28;20204;-78
2022/04/29 10:01:44;;;;;;;4.05;2.50;;;20.70;99.90;;;;;;5000879;28;20212;-78
2022/04/29 10:04:12;;;;;;;2.53;2.33;;;20.80;99.90;;;;;;5002124;28;20216;-79
2022/04/29 10:06:44;;;;;;;3.22;2.70;;;20.90;99.90;;;;;;5000170;28;20251;-78
2022/04/29 10:09:13;;;;;;;2.75;2.55;;;20.90;99.90;;;;;;5005557;28;20196;-78
2022/04/29 10:11:42;;;;;;;2.35;2.15;;;20.80;99.90;;;;;;5006897;28;20224;-79
2022/04/29 10:14:13;;;;;;;3.17;2.88;;;20.90;99.90;;;;;;5005675;28;20669;-78
2022/04/29 10:21:15;;;;;;;3.30;3.00;;;21.00;99.90;;;;;;5001826;28;20255;-79
2022/04/29 10:22:25;;;;;;;2.83;2.40;;;21.10;99.90;;;;;;4978207;28;20591;-78
2022/04/29 10:24:52;;;;;;;3.05;2.38;;;21.30;99.90;;;;;;5044879;22;20225;-76
2022/04/29 10:27:19;;;;;;;2.55;2.35;;;21.30;99.90;;;;;;5069948;28;20228;-77
2022/04/29 10:29:47;;;;;;;2.90;2.70;;;21.40;99.90;;;;;;5063673;28;20216;-77
2022/04/29 10:32:16;;;;;;;2.58;2.38;;;21.40;99.90;;;;;;5048630;28;20735;-77
2022/04/29 10:34:43;;;;;;;2.85;2.60;;;21.40;99.90;;;;;;5055357;28;20218;-77
2022/04/29 10:37:14;;;;;;;2.35;2.15;;;21.60;99.90;;;;;;5064031;28;20233;-78
2022/04/29 10:39:42;;;;;;;2.70;2.38;;;21.70;99.90;;;;;;5066029;28;20194;-77
2022/04/29 10:42:09;;;;;;;2.85;2.25;;;21.60;99.90;;;;;;5074421;28;20269;-78
2022/04/29 10:44:59;;;;;;;4.63;2.83;;;21.40;99.90;;;;;;5064410;28;20292;-77
2022/04/29 10:47:38;;;;;;;4.45;2.38;;;21.40;99.90;;;;;;5061843;28;20645;-77
2022/04/29 10:50:38;;;;;;;3.63;2.40;;;21.50;99.90;;;;;;5062750;28;20195;-77
2022/04/29 10:53:06;;;;;;;2.72;2.40;;;21.50;99.90;;;;;;4988995;28;20810;-79
2022/04/29 10:55:33;;;;;;;3.08;2.30;;;21.30;99.90;;;;;;4989627;28;20765;-77
2022/04/29 10:58:05;;;;;;;2.80;2.60;;;21.30;99.90;;;;;;5024397;28;20279;-78
2022/04/29 11:07:43;;;;;;;2.38;2.17;;;22.10;99.90;;;;;;5017330;28;20216;-81
2022/04/29 11:10:13;;;;;;;2.60;2.35;;;22.00;99.90;;;;;;5013781;28;20200;-84
2022/04/29 11:12:42;;;;;;;3.95;2.28;;;22.20;99.90;;;;;;5010805;28;20368;-83
2022/04/29 11:15:11;;;;;;;2.15;1.95;;;22.00;99.90;;;;;;5014140;28;20243;-81
2022/04/29 11:17:39;;;;;;;2.15;1.98;;;22.00;99.90;;;;;;5015897;28;20666;-80
2022/04/29 11:20:23;;;;;;;2.25;2.08;;;22.00;99.90;;;;;;5017507;28;20666;-81
2022/04/29 11:25:55;;;;;;;3.05;2.05;;;22.00;99.90;;;;;;5010818;28;20203;-83
2022/04/29 11:28:23;;;;;;;3.97;1.98;;;22.10;99.90;;;;;;5020697;28;20284;-83
2022/04/29 11:30:51;;;;;;;2.10;1.90;;;22.10;99.90;;;;;;5025241;28;20207;-83
2022/04/29 11:33:24;;;;;;;2.00;1.80;;;22.20;99.90;;;;;;5019838;28;20252;-83
2022/04/29 11:35:57;;;;;;;1.77;1.67;;;22.20;99.90;;;;;;5027890;28;20196;-83
2022/04/29 11:38:25;;;;;;;1.95;1.80;;;22.30;99.90;;;;;;5032319;28;20255;-81
2022/04/29 11:40:53;;;;;;;2.03;1.70;;;22.30;98.80;;;;;;5025306;28;20200;-85
2022/04/29 11:43:24;;;;;;;2.00;1.90;;;22.30;97.60;;;;;;5022933;28;20263;-86
2022/04/29 11:46:02;;;;;;;1.90;1.80;;;22.30;99.90;;;;;;5029585;28;20269;-86
2022/04/29 11:48:29;;;;;;;1.63;1.52;;;22.50;97.60;;;;;;5023380;28;20216;-84
2022/04/29 11:50:58;;;;;;;2.10;1.90;;;22.60;98.20;;;;;;5024455;28;20200;-85
2022/04/29 11:53:27;;;;;;;3.40;1.80;;;22.80;98.70;;;;;;5026594;28;20258;-86
2022/04/29 11:55:54;;;;;;;2.40;2.20;;;22.70;97.60;;;;;;5028183;28;20200;-86
2022/04/29 11:58:22;;;;;;;2.08;1.80;;;22.60;97.30;;;;;;5026140;28;20219;-85
2022/04/29 12:00:51;;;;;;;3.20;2.40;;;22.40;97.40;;;;;;5023853;28;20890;-85
2022/04/29 12:03:22;;;;;;;3.40;1.70;;;22.40;97.90;;;;;;5021260;28;20904;-86
2022/04/29 12:05:49;;;;;;;2.17;1.98;;;22.50;97.50;;;;;;5024402;28;20204;-82
2022/04/29 12:08:17;;;;;;;4.00;1.70;;;22.60;99.00;;;;;;5030706;28;20231;-86
2022/04/29 12:10:47;;;;;;;4.82;1.92;;;22.60;98.40;;;;;;5026329;28;20247;-85
2022/04/29 12:13:18;;;;;;;2.05;1.83;;;22.70;98.10;;;;;;5012666;28;20228;-83
2022/04/29 12:15:45;;;;;;;2.20;2.00;;;22.70;96.40;;;;;;5014222;28;20199;-82
2022/04/29 12:18:14;;;;;;;1.70;1.60;;;22.60;96.80;;;;;;5011178;28;20228;-81
2022/04/29 12:20:41;;;;;;;2.53;1.77;;;22.60;97.40;;;;;;5017637;28;20243;-84
2022/04/29 12:23:10;;;;;;;1.85;1.60;;;22.80;96.50;;;;;;5013154;28;20227;-81
2022/04/29 12:25:41;;;;;;;3.08;1.63;;;22.90;97.20;;;;;;5011862;28;20204;-79
2022/04/29 12:28:17;;;;;;;2.22;1.77;;;23.00;96.80;;;;;;5006698;28;20224;-81
2022/04/29 12:36:47;;;;;;;1.80;1.50;;;23.00;94.20;;;;;;5009508;28;20211;-82
2022/04/29 12:39:15;;;;;;;2.00;1.80;;;22.90;93.70;;;;;;5004282;28;20265;-80
2022/04/29 12:41:43;;;;;;;2.40;1.90;;;22.90;94.30;;;;;;5005178;28;20227;-81
2022/04/29 12:45:03;;;;;;;2.08;1.80;;;22.80;94.30;;;;;;5010450;28;20255;-80
2022/04/29 12:47:02;;;;;;;2.15;1.60;;;22.90;94.60;;;;;;5006322;28;20228;-80
2022/04/29 12:49:29;;;;;;;2.65;1.73;;;22.90;94.80;;;;;;5007014;28;20211;-80
2022/04/29 12:52:00;;;;;;;2.28;1.80;;;23.00;95.20;;;;;;5006152;28;20232;-80
2022/04/29 12:54:28;;;;;;;2.20;2.00;;;23.00;95.20;;;;;;5007699;28;20210;-80
2022/04/29 12:56:55;;;;;;;2.13;2.03;;;23.00;94.20;;;;;;5002426;28;20223;-80
2022/04/29 12:59:26;;;;;;;3.28;2.03;;;23.00;94.70;;;;;;5009740;28;20208;-81
2022/04/29 13:01:53;;;;;;;1.60;1.50;;;23.10;94.50;;;;;;5011409;28;20204;-81
2022/04/29 13:04:22;;;;;;;2.42;1.70;;;23.10;93.40;;;;;;5015526;28;20224;-79
2022/04/29 13:06:49;;;;;;;3.75;1.80;;;23.10;93.80;;;;;;5006541;28;20205;-78
2022/04/29 13:09:16;;;;;;;2.25;2.05;;;23.10;93.30;;;;;;5005122;28;20758;-79
2022/04/29 13:11:45;;;;;;;2.13;1.92;;;23.10;93.40;;;;;;5019422;28;20196;-80
2022/04/29 13:14:16;;;;;;;2.20;1.80;;;23.10;93.10;;;;;;5011449;28;20200;-78
2022/04/29 13:16:47;;;;;;;2.38;1.92;;;23.00;91.90;;;;;;5004015;28;20220;-79
2022/04/29 13:19:14;;;;;;;2.17;1.95;;;23.00;92.00;;;;;;5014842;28;20206;-80
2022/04/29 13:21:41;;;;;;;2.05;1.73;;;23.10;92.90;;;;;;5011828;28;20228;-79
2022/04/29 13:24:09;;;;;;;1.85;1.70;;;23.30;93.10;;;;;;5011534;28;20772;-79
2022/04/29 13:26:37;;;;;;;3.15;1.73;;;23.40;92.70;;;;;;5009542;28;20196;-78
2022/04/29 13:29:04;;;;;;;3.30;2.10;;;23.40;92.90;;;;;;5007734;28;20219;-80
2022/04/29 13:31:31;;;;;;;3.03;2.00;;;23.50;92.20;;;;;;5008026;28;20659;-78
2022/04/29 13:33:59;;;;;;;4.63;2.30;;;23.40;92.10;;;;;;5008336;28;20633;-78
2022/04/29 13:36:27;;;;;;;2.78;1.80;;;23.30;91.90;;;;;;5007237;28;20204;-79
2022/04/29 13:38:55;;;;;;;2.88;1.98;;;23.30;92.00;;;;;;5010528;28;20232;-78
2022/04/29 13:41:22;;;;;;;2.58;1.50;;;23.30;91.70;;;;;;5009191;28;20206;-78
2022/04/29 13:43:50;;;;;;;4.22;2.08;;;23.30;91.90;;;;;;5011412;28;20227;-79
2022/04/29 13:46:17;;;;;;;3.90;1.85;;;23.30;92.20;;;;;;5010252;28;20342;-79
2022/04/29 13:48:44;;;;;;;8.50;2.15;;;23.40;91.40;;;;;;5014917;28;20266;-78
2022/04/29 13:51:12;;;;;;;1.77;1.58;;;23.40;91.00;;;;;;5006192;28;20196;-79
2022/04/29 13:53:39;;;;;;;2.25;2.05;;;23.40;91.60;;;;;;5010977;28;20220;-79
2022/04/29 13:56:07;;;;;;;3.25;2.00;;;23.30;90.50;;;;;;5012195;28;20622;-77
2022/04/29 13:58:34;;;;;;;3.00;1.80;;;23.10;90.90;;;;;;5087123;23;20226;-75